^^
Grace C. Lehan Memorial Weather Station Historical Data
Daily Summary for September 18, 2021 Units:  English    Metric   Both
Daily Weekly Monthly Yearly
  High: Low: Average:
Temperature: 83.9 °F 51.7 °F 69.2 °F
Dew Point: 56 °F 47.4 °F 50.3 °F
Humidity: 87% 28.7% 56%
Wind Speed: 9mph 0mph 1.6mph
Wind Gust: 21mph - -
Wind- - WNW
Pressure: 30.27 in 30.12 in -
Precipitation: 0.00 in    
 
 
Tabular Data for September 18, 2021
Time Temperature Dew Point Pressure Wind Wind Speed Wind Gust Humidity Rainfall Rate (Hourly) solar
00:00 57.4 °F 49.9 °F 30.24 in Calm     76% 0.00 in 0 W/m2
00:09 57.3 °F 50 °F 30.25 in Calm     76.4% 0.00 in 0 W/m2
00:14 57.3 °F 49.8 °F 30.25 in Calm     76% 0.00 in 0 W/m2
00:19 57.2 °F 50 °F 30.25 in Calm     76.7% 0.00 in 0 W/m2
00:24 57.1 °F 49.9 °F 30.24 in Calm     77% 0.00 in 0 W/m2
00:29 56.9 °F 49.8 °F 30.24 in Calm     77% 0.00 in 0 W/m2
00:34 56.8 °F 50 °F 30.24 in Calm     78% 0.00 in 0 W/m2
00:39 56.6 °F 49.8 °F 30.24 in Calm     77.9% 0.00 in 0 W/m2
00:44 56.5 °F 49.5 °F 30.24 in Calm     77.6% 0.00 in 0 W/m2
00:49 56.4 °F 49.6 °F 30.24 in Calm     78% 0.00 in 0 W/m2
00:54 56.4 °F 49.7 °F 30.24 in Calm     78% 0.00 in 0 W/m2
00:59 56.4 °F 49.7 °F 30.24 in Calm     78% 0.00 in 0 W/m2
01:04 56.4 °F 49.6 °F 30.24 in Calm     77.8% 0.00 in 0 W/m2
01:09 56.4 °F 49.3 °F 30.24 in Calm     77% 0.00 in 0 W/m2
01:14 56.4 °F 49.3 °F 30.24 in Calm     77% 0.00 in 0 W/m2
01:19 56.4 °F 49.3 °F 30.24 in Calm     77% 0.00 in 0 W/m2
01:24 56.3 °F 49.2 °F 30.24 in Calm     77% 0.00 in 0 W/m2
01:29 56.2 °F 49.1 °F 30.24 in Calm     77% 0.00 in 0 W/m2
01:34 56.2 °F 49.1 °F 30.24 in Calm     77% 0.00 in 0 W/m2
01:39 56.2 °F 49.1 °F 30.24 in Calm     77% 0.00 in 0 W/m2
01:44 56.1 °F 49.1 °F 30.23 in Calm     77.1% 0.00 in 0 W/m2
01:49 56 °F 49.3 °F 30.23 in Calm     78% 0.00 in 0 W/m2
01:54 55.9 °F 49.2 °F 30.23 in Calm     78% 0.00 in 0 W/m2
01:59 55.8 °F 49.1 °F 30.23 in Calm     78% 0.00 in 0 W/m2
02:04 55.8 °F 49 °F 30.23 in Calm     78% 0.00 in 0 W/m2
02:09 55.6 °F 48.9 °F 30.23 in Calm     78% 0.00 in 0 W/m2
02:14 55.4 °F 48.9 °F 30.23 in Calm     78.5% 0.00 in 0 W/m2
02:19 55.2 °F 48.9 °F 30.23 in Calm     79% 0.00 in 0 W/m2
02:24 55.1 °F 48.7 °F 30.23 in Calm     79% 0.00 in 0 W/m2
02:29 54.9 °F 48.5 °F 30.23 in Calm     79% 0.00 in 0 W/m2
02:34 54.7 °F 48.4 °F 30.23 in Calm     79% 0.00 in 0 W/m2
02:39 54.6 °F 48.2 °F 30.23 in Calm     79% 0.00 in 0 W/m2
02:44 54.5 °F 48.1 °F 30.23 in Calm     79.1% 0.00 in 0 W/m2
02:49 54.3 °F 48.3 °F 30.23 in Calm     80% 0.00 in 0 W/m2
02:54 54.2 °F 48.3 °F 30.22 in Calm     80.3% 0.00 in 0 W/m2
02:59 54.1 °F 48.3 °F 30.22 in Calm     80.7% 0.00 in 0 W/m2
03:04 54 °F 48.1 °F 30.22 in Calm     80.3% 0.00 in 0 W/m2
03:09 53.9 °F 48.2 °F 30.22 in Calm     81% 0.00 in 0 W/m2
03:14 53.8 °F 48.1 °F 30.22 in Calm     81% 0.00 in 0 W/m2
03:19 53.7 °F 48.2 °F 30.22 in Calm     81.6% 0.00 in 0 W/m2
03:24 53.7 °F 48.3 °F 30.22 in Calm     82% 0.00 in 0 W/m2
03:29 53.6 °F 48.2 °F 30.22 in Calm     81.8% 0.00 in 0 W/m2
03:34 53.5 °F 47.9 °F 30.22 in Calm     81% 0.00 in 0 W/m2
03:39 53.5 °F 47.8 °F 30.22 in Calm     81% 0.00 in 0 W/m2
03:44 53.4 °F 48 °F 30.22 in Calm     81.7% 0.00 in 0 W/m2
03:49 53.4 °F 48 °F 30.22 in Calm     82% 0.00 in 0 W/m2
03:54 53.3 °F 48 °F 30.22 in Calm     82% 0.00 in 0 W/m2
03:59 53.2 °F 47.9 °F 30.22 in Calm     82% 0.00 in 0 W/m2
04:00 53.2 °F 47.9 °F 30.22 in Calm     82% 0.00 in 0 W/m2
04:09 52.9 °F 47.9 °F 30.22 in Calm     83% 0.00 in 0 W/m2
04:14 52.7 °F 47.9 °F 30.22 in Calm     83.7% 0.00 in 0 W/m2
04:19 52.4 °F 47.7 °F 30.22 in Calm     84% 0.00 in 0 W/m2
04:24 52.2 °F 47.8 °F 30.22 in Calm     84.7% 0.00 in 0 W/m2
04:29 52.1 °F 47.8 °F 30.23 in Calm     85% 0.00 in 0 W/m2
04:34 52 °F 48 °F 30.23 in Calm     85.9% 0.00 in 0 W/m2
04:39 51.9 °F 47.9 °F 30.23 in Calm     86% 0.00 in 0 W/m2
04:44 51.8 °F 47.8 °F 30.23 in Calm     86% 0.00 in 0 W/m2
04:49 51.8 °F 47.8 °F 30.23 in Calm     86.2% 0.00 in 0 W/m2
04:54 51.7 °F 47.9 °F 30.23 in Calm     86.7% 0.00 in 0 W/m2
04:59 51.7 °F 48 °F 30.23 in Calm     87% 0.00 in 0 W/m2
05:04 51.8 °F 48.1 °F 30.23 in Calm     87% 0.00 in 0 W/m2
05:09 51.9 °F 48.1 °F 30.23 in Calm     87% 0.00 in 0 W/m2
05:14 52.1 °F 48.3 °F 30.23 in Calm     87% 0.00 in 0 W/m2
05:19 52.2 °F 48.4 °F 30.23 in Calm     86.8% 0.00 in 0 W/m2
05:24 52.4 °F 48.4 °F 30.23 in Calm     86% 0.00 in 0 W/m2
05:29 52.6 °F 48.5 °F 30.23 in Calm     86% 0.00 in 0 W/m2
05:34 52.6 °F 48.5 °F 30.23 in Calm     86% 0.00 in 0 W/m2
05:39 52.6 °F 48.5 °F 30.23 in Calm     86% 0.00 in 0 W/m2
05:44 52.6 °F 48.5 °F 30.23 in Calm     85.9% 0.00 in 7 W/m2
05:49 52.5 °F 48.3 °F 30.23 in Calm     85.4% 0.00 in 9 W/m2
05:54 52.4 °F 48.3 °F 30.24 in Calm     86% 0.00 in 12 W/m2
05:59 52.4 °F 48.3 °F 30.24 in Calm     86% 0.00 in 19 W/m2
06:04 52.4 °F 48.4 °F 30.24 in Calm     86% 0.00 in 19 W/m2
06:09 52.6 °F 48.3 °F 30.24 in Calm     85.3% 0.00 in 19 W/m2
06:14 52.8 °F 48.4 °F 30.25 in Calm     85% 0.00 in 18 W/m2
06:19 52.9 °F 48.5 °F 30.25 in Calm     85% 0.00 in 26 W/m2
06:24 53 °F 48.6 °F 30.25 in Calm     85% 0.00 in 28 W/m2
06:29 53.1 °F 48.7 °F 30.25 in Calm     85% 0.00 in 33 W/m2
06:34 53.2 °F 48.8 °F 30.25 in Calm     85% 0.00 in 72 W/m2
06:39 53.5 °F 49.2 °F 30.25 in Calm     85.5% 0.00 in 84 W/m2
06:44 54 °F 49.8 °F 30.25 in Calm     85.5% 0.00 in 91 W/m2
06:49 54.8 °F 50.4 °F 30.25 in Calm     85% 0.00 in 130 W/m2
06:54 55.7 °F 50.7 °F 30.25 in Calm     83.4% 0.00 in 202 W/m2
06:59 56.7 °F 51 °F 30.26 in Calm     81.1% 0.00 in 199 W/m2
07:04 57.6 °F 51.2 °F 30.26 in Calm     79.1% 0.00 in 167 W/m2
07:09 58.7 °F 51.8 °F 30.26 in Calm     77.6% 0.00 in 216 W/m2
07:14 59.7 °F 52 °F 30.26 in Calm     75.7% 0.00 in 269 W/m2
07:19 60.6 °F 52.3 °F 30.26 in Calm     74% 0.00 in 285 W/m2
07:24 61.4 °F 52.8 °F 30.27 in Calm     73.4% 0.00 in 302 W/m2
07:29 62.3 °F 52.8 °F 30.27 in Calm     71.1% 0.00 in 323 W/m2
07:34 63 °F 52.9 °F 30.26 in Calm     69.5% 0.00 in 345 W/m2
07:39 63.8 °F 53.4 °F 30.26 in Calm     68.9% 0.00 in 357 W/m2
07:44 64.7 °F 53.9 °F 30.26 in Calm     68% 0.00 in 378 W/m2
07:49 65.6 °F 54.6 °F 30.26 in Calm     67.5% 0.00 in 410 W/m2
07:54 66.6 °F 54.9 °F 30.26 in Calm     66.2% 0.00 in 438 W/m2
07:59 67.4 °F 54.8 °F 30.26 in Calm     64% 0.00 in 439 W/m2
08:00 67.8 °F 55.2 °F 30.26 in Calm     64% 0.00 in 436 W/m2
08:09 68.7 °F 54.8 °F 30.26 in Calm     61.2% 0.00 in 466 W/m2
08:14 69.2 °F 55.2 °F 30.26 in Calm     61% 0.00 in 490 W/m2
08:19 69.6 °F 54.4 °F 30.26 in Calm     58.3% 0.00 in 534 W/m2
08:24 69.8 °F 53.4 °F 30.26 in Calm     55.9% 0.00 in 534 W/m2
08:29 70 °F 53.7 °F 30.26 in Calm     56.3% 0.00 in 629 W/m2
08:34 70.2 °F 54.6 °F 30.27 in Calm     57.9% 0.00 in 642 W/m2
08:39 70.7 °F 55.1 °F 30.27 in Calm     57.8% 0.00 in 668 W/m2
08:44 71.5 °F 55.4 °F 30.27 in Calm     56.8% 0.00 in 687 W/m2
08:49 72.2 °F 55.1 °F 30.27 in Calm     54.7% 0.00 in 691 W/m2
08:54 72.7 °F 53.9 °F 30.27 in WSW 0.7 mph 4 mph 51.6% 0.00 in 664 W/m2
08:59 72.9 °F 54.5 °F 30.27 in Calm   4 mph 52.5% 0.00 in 381 W/m2
09:04 73.2 °F 55.1 °F 30.27 in Calm   4 mph 53% 0.00 in 763 W/m2
09:09 73.8 °F 55.1 °F 30.27 in Calm     52.1% 0.00 in 759 W/m2
09:14 74.3 °F 55.3 °F 30.27 in Calm     51.7% 0.00 in 508 W/m2
09:19 74.5 °F 56 °F 30.27 in Calm     52.5% 0.00 in 506 W/m2
09:24 74.4 °F 54.3 °F 30.27 in West 0.5 mph 4 mph 49.5% 0.00 in 591 W/m2
09:29 74.3 °F 54.1 °F 30.27 in NE 0.3 mph 4 mph 49.4% 0.00 in 777 W/m2
09:34 74.8 °F 54.7 °F 30.26 in Calm   4 mph 49.6% 0.00 in 777 W/m2
09:39 75.5 °F 54.2 °F 30.26 in West 2.4 mph 10 mph 47.6% 0.00 in 545 W/m2
09:44 75.7 °F 53.7 °F 30.26 in WNW 0.8 mph 10 mph 46.4% 0.00 in 888 W/m2
09:49 76.2 °F 55 °F 30.26 in WNW 0.7 mph 10 mph 47.8% 0.00 in 891 W/m2
09:54 77 °F 54.9 °F 30.26 in WNW 0.6 mph 10 mph 46.5% 0.00 in 907 W/m2
09:59 77.6 °F 54.1 °F 30.26 in WNW 3.8 mph 11 mph 44.2% 0.00 in 907 W/m2
10:04 77.9 °F 53.6 °F 30.26 in WNW 2.6 mph 11 mph 43% 0.00 in 791 W/m2
10:09 78 °F 53.4 °F 30.25 in West 3.2 mph 11 mph 42.5% 0.00 in 798 W/m2
10:14 78.3 °F 53.3 °F 30.25 in WNW 0.8 mph 11 mph 42% 0.00 in 803 W/m2
10:19 78.7 °F 53.4 °F 30.25 in WNW 1.3 mph 11 mph 41.6% 0.00 in 821 W/m2
10:24 79.2 °F 54.3 °F 30.25 in WNW 0.4 mph 11 mph 42.3% 0.00 in 830 W/m2
10:29 79.7 °F 54.1 °F 30.25 in WNW 0.9 mph 11 mph 41.3% 0.00 in 846 W/m2
10:34 80.1 °F 55 °F 30.25 in NNW 0.8 mph 11 mph 42.1% 0.00 in 854 W/m2
10:39 80.5 °F 53.8 °F 30.25 in WNW 3.1 mph 10 mph 39.9% 0.00 in 868 W/m2
10:44 80.6 °F 54 °F 30.25 in NW 3.3 mph 10 mph 39.9% 0.00 in 872 W/m2
10:49 80.7 °F 54.2 °F 30.25 in WNW 0.8 mph 10 mph 40% 0.00 in 886 W/m2
10:54 81.1 °F 54.3 °F 30.25 in WNW 2.7 mph 10 mph 39.8% 0.00 in 874 W/m2
10:59 81.3 °F 54.3 °F 30.24 in Calm   10 mph 39.4% 0.00 in 863 W/m2
11:04 81.7 °F 54.9 °F 30.24 in Calm   10 mph 39.8% 0.00 in 884 W/m2
11:09 82.1 °F 54.4 °F 30.24 in WNW 2.3 mph 11 mph 38.6% 0.00 in 881 W/m2
11:14 82.3 °F 54.4 °F 30.24 in WNW 2.2 mph 11 mph 38.4% 0.00 in 930 W/m2
11:19 82.5 °F 51.6 °F 30.24 in WNW 5.7 mph 18 mph 34.4% 0.00 in 930 W/m2
11:24 82.4 °F 51.3 °F 30.24 in WNW 4.7 mph 18 mph 34.1% 0.00 in 914 W/m2
11:29 82.2 °F 50.8 °F 30.24 in NW 4.1 mph 18 mph 33.6% 0.00 in 919 W/m2
11:34 82.1 °F 51.7 °F 30.24 in NW 3.2 mph 18 mph 34.9% 0.00 in 942 W/m2
11:39 82.3 °F 52.1 °F 30.24 in NW 2.9 mph 14 mph 35.3% 0.00 in 953 W/m2
11:44 82.5 °F 52.1 °F 30.24 in NW 1.8 mph 14 mph 35% 0.00 in 949 W/m2
11:49 82.7 °F 51.8 °F 30.24 in West 4.6 mph 14 mph 34.4% 0.00 in 970 W/m2
11:54 82.9 °F 52.5 °F 30.24 in West 1.3 mph 14 mph 35.2% 0.00 in 972 W/m2
11:59 83.2 °F 51.2 °F 30.24 in WNW 5.1 mph 14 mph 33.2% 0.00 in 976 W/m2
12:00 83.2 °F 50.3 °F 30.23 in West 9 mph 14 mph 32% 0.00 in 976 W/m2
12:09 82.9 °F 49.9 °F 30.24 in WNW 6.3 mph 17 mph 31.8% 0.00 in 990 W/m2
12:14 82.5 °F 49.9 °F 30.23 in NW 4.8 mph 17 mph 32.3% 0.00 in 988 W/m2
12:19 82.2 °F 49.4 °F 30.23 in NW 5.4 mph 17 mph 32% 0.00 in 991 W/m2
12:24 81.9 °F 48.8 °F 30.23 in WNW 5.7 mph 17 mph 31.6% 0.00 in 991 W/m2
12:29 81.6 °F 47.7 °F 30.23 in NW 3.7 mph 17 mph 30.6% 0.00 in 1002 W/m2
12:34 81.5 °F 49.1 °F 30.23 in WNW 6 mph 17 mph 32.3% 0.00 in 1007 W/m2
12:39 81.7 °F 49.2 °F 30.22 in WNW 5.2 mph 14 mph 32.3% 0.00 in 1014 W/m2
12:44 81.8 °F 48.8 °F 30.22 in WNW 6.2 mph 14 mph 31.6% 0.00 in 1002 W/m2
12:49 81.8 °F 49.7 °F 30.22 in WNW 3.3 mph 14 mph 32.7% 0.00 in 1000 W/m2
12:54 82.1 °F 49.8 °F 30.22 in WNW 7.3 mph 17 mph 32.6% 0.00 in 1005 W/m2
12:59 82.1 °F 49.1 °F 30.22 in WNW 4 mph 17 mph 31.8% 0.00 in 1020 W/m2
13:04 82.2 °F 49.7 °F 30.21 in WNW 5.6 mph 17 mph 32.3% 0.00 in 1013 W/m2
13:09 82.5 °F 48.2 °F 30.21 in WNW 4.7 mph 16 mph 30.3% 0.00 in 1004 W/m2
13:14 82.6 °F 49.2 °F 30.21 in West 4.3 mph 16 mph 31.2% 0.00 in 997 W/m2
13:19 82.6 °F 48.2 °F 30.21 in WNW 6.1 mph 18 mph 30.1% 0.00 in 993 W/m2
13:24 82.7 °F 49.1 °F 30.21 in WNW 5.7 mph 18 mph 31.2% 0.00 in 997 W/m2
13:29 82.6 °F 47.4 °F 30.21 in WNW 7.3 mph 18 mph 29.2% 0.00 in 995 W/m2
13:34 82.3 °F 48 °F 30.20 in WNW 4.9 mph 18 mph 30.1% 0.00 in 997 W/m2
13:39 82.5 °F 50.1 °F 30.20 in WNW 3.4 mph 14 mph 32.5% 0.00 in 984 W/m2
13:44 82.8 °F 49.3 °F 30.20 in WNW 5.3 mph 14 mph 31.2% 0.00 in 951 W/m2
13:49 83 °F 48.9 °F 30.20 in West 3.2 mph 14 mph 30.6% 0.00 in 981 W/m2
13:54 83.2 °F 48.2 °F 30.19 in West 3.5 mph 14 mph 29.6% 0.00 in 983 W/m2
13:59 83.3 °F 49.3 °F 30.19 in WNW 5 mph 15 mph 30.8% 0.00 in 988 W/m2
14:04 83 °F 48 °F 30.19 in WNW 1.5 mph 15 mph 29.6% 0.00 in 1002 W/m2
14:09 83.1 °F 48 °F 30.18 in WSW 3.2 mph 9 mph 29.4% 0.00 in 1004 W/m2
14:14 83.4 °F 48 °F 30.19 in WNW 6.4 mph 21 mph 29.3% 0.00 in 947 W/m2
14:19 83.3 °F 47.5 °F 30.19 in WNW 6.4 mph 21 mph 28.7% 0.00 in 1021 W/m2
14:24 83.4 °F 47.6 °F 30.19 in WNW 3.9 mph 21 mph 28.8% 0.00 in 1000 W/m2
14:29 83.6 °F 48.2 °F 30.19 in WNW 4.5 mph 21 mph 29.2% 0.00 in 997 W/m2
14:34 83.5 °F 48.8 °F 30.19 in WNW 2.7 mph 21 mph 29.9% 0.00 in 958 W/m2
14:39 83.6 °F 49.2 °F 30.18 in WNW 5.1 mph 13 mph 30.3% 0.00 in 977 W/m2
14:44 83.5 °F 50 °F 30.18 in WNW 3.6 mph 13 mph 31.4% 0.00 in 977 W/m2
14:49 83.6 °F 49.7 °F 30.18 in WNW 4.8 mph 15 mph 30.9% 0.00 in 947 W/m2
14:54 83.9 °F 49.9 °F 30.18 in WNW 3.5 mph 15 mph 30.9% 0.00 in 856 W/m2
14:59 83.8 °F 48.9 °F 30.18 in WNW 5 mph 15 mph 29.8% 0.00 in 877 W/m2
15:04 83.2 °F 48.8 °F 30.17 in West 5.1 mph 15 mph 30.3% 0.00 in 907 W/m2
15:09 83.2 °F 49.7 °F 30.17 in West 3.5 mph 15 mph 31.3% 0.00 in 889 W/m2
15:14 83.5 °F 50.2 °F 30.17 in WNW 3.7 mph 15 mph 31.5% 0.00 in 877 W/m2
15:19 83.6 °F 48 °F 30.17 in WNW 7.5 mph 16 mph 29% 0.00 in 861 W/m2
15:24 83.3 °F 47.8 °F 30.16 in WNW 4.3 mph 16 mph 29% 0.00 in 830 W/m2
15:29 83.2 °F 48.7 °F 30.16 in NW 2.7 mph 16 mph 30.1% 0.00 in 816 W/m2
15:34 83.4 °F 49.9 °F 30.15 in NW 2.9 mph 16 mph 31.3% 0.00 in 816 W/m2
15:39 83.6 °F 49.2 °F 30.15 in WNW 5.4 mph 16 mph 30.3% 0.00 in 786 W/m2
15:44 83.5 °F 48.8 °F 30.15 in WNW 7.7 mph 16 mph 29.9% 0.00 in 777 W/m2
15:49 83.3 °F 48.8 °F 30.15 in WNW 7 mph 16 mph 30.1% 0.00 in 765 W/m2
15:54 83 °F 48 °F 30.15 in WNW 6.3 mph 16 mph 29.6% 0.00 in 738 W/m2
15:59 82.9 °F 49 °F 30.15 in WNW 3.8 mph 16 mph 30.8% 0.00 in 738 W/m2
16:00 82.9 °F 48.3 °F 30.14 in WNW 2 mph 16 mph 30% 0.00 in 738 W/m2
16:09 82.9 °F 49.8 °F 30.14 in WNW 3.1 mph 11 mph 31.7% 0.00 in 693 W/m2
16:14 82.8 °F 50.2 °F 30.14 in West 1.8 mph 11 mph 32.3% 0.00 in 83 W/m2
16:19 82.8 °F 49.5 °F 30.14 in WNW 6.6 mph 17 mph 31.5% 0.00 in 79 W/m2
16:24 82.8 °F 49.1 °F 30.14 in WNW 5.5 mph 17 mph 31% 0.00 in 90 W/m2
16:29 82.7 °F 48.7 °F 30.14 in WNW 4.8 mph 17 mph 30.7% 0.00 in 86 W/m2
16:34 82.6 °F 49.5 °F 30.14 in West 2.8 mph 17 mph 31.7% 0.00 in 76 W/m2
16:39 82.6 °F 49.7 °F 30.14 in NW 5.1 mph 12 mph 31.9% 0.00 in 74 W/m2
16:44 82.5 °F 49.2 °F 30.13 in WNW 3.4 mph 12 mph 31.4% 0.00 in 74 W/m2
16:45 82.5 °F 48.8 °F 30.13 in WNW 3.6 mph 12 mph 31% 0.00 in 72 W/m2
17:00 82.4 °F 49.6 °F 30.13 in WNW 4 mph 21 mph 32% 0.00 in 71 W/m2
17:30 82 °F 50.1 °F 30.12 in WNW 4 mph 15 mph 33% 0.00 in 64 W/m2
18:00 81.7 °F 49.8 °F 30.12 in WNW 3 mph 15 mph 33% 0.00 in 77 W/m2
18:30 81.3 °F 51.1 °F 30.13 in WNW 2 mph 10 mph 35% 0.00 in 79 W/m2
19:00 80.7 °F 49.8 °F 30.14 in WNW 2 mph 11 mph 34% 0.00 in 46 W/m2
19:30 79.3 °F 48.5 °F 30.13 in WNW 1 mph 7 mph 34% 0.00 in 35 W/m2
20:04 77.7 °F 49.3 °F 30.14 in Calm   1 mph 37% 0.00 in 0 W/m2
20:09 77.4 °F 49.5 °F 30.14 in Calm   1 mph 37.6% 0.00 in 0 W/m2
20:14 77 °F 49.5 °F 30.14 in Calm   1 mph 38% 0.00 in 0 W/m2
20:19 76.5 °F 49.6 °F 30.13 in Calm   1 mph 38.9% 0.00 in 0 W/m2
20:24 75.9 °F 49.8 °F 30.14 in Calm   1 mph 39.9% 0.00 in 0 W/m2
20:29 75.6 °F 49.6 °F 30.14 in Calm   1 mph 40% 0.00 in 0 W/m2
20:34 75.2 °F 49.4 °F 30.14 in Calm   1 mph 40.3% 0.00 in 0 W/m2
20:39 74.8 °F 49.6 °F 30.14 in Calm     41.1% 0.00 in 0 W/m2
20:44 74.5 °F 49.9 °F 30.14 in Calm     42% 0.00 in 0 W/m2
20:49 74.1 °F 50.1 °F 30.14 in Calm     42.9% 0.00 in 0 W/m2
20:54 73.7 °F 50.1 °F 30.14 in Calm     43.4% 0.00 in 0 W/m2
20:59 73.4 °F 50.4 °F 30.15 in Calm     44.3% 0.00 in 0 W/m2
21:04 73 °F 50.5 °F 30.15 in Calm     45% 0.00 in 0 W/m2
21:09 72.7 °F 50.7 °F 30.16 in Calm     45.9% 0.00 in 0 W/m2
21:14 72.3 °F 51.2 °F 30.16 in Calm     47.3% 0.00 in 0 W/m2
21:19 71.9 °F 51.2 °F 30.16 in Calm     48% 0.00 in 0 W/m2
21:24 71.6 °F 50.8 °F 30.16 in Calm     48% 0.00 in 0 W/m2
21:29 71.2 °F 50.6 °F 30.16 in Calm     48.1% 0.00 in 0 W/m2
21:32 71 °F 50.4 °F 30.16 in Calm     48% 0.00 in 0 W/m2
22:00 69.7 °F 50.3 °F 30.17 in Calm     50% 0.00 in 0 W/m2
22:30 69.3 °F 49.3 °F 30.17 in Calm   2 mph 49% 0.00 in 0 W/m2
23:00 68 °F 50.8 °F 30.17 in Calm   1 mph 54% 0.00 in 0 W/m2
23:30 67.2 °F 49.5 °F 30.17 in Calm   2 mph 53% 0.00 in 0 W/m2
Hartford County Weather
Compliments of Weather Underground - 4 mb